Time;durP1;ratioP1;P1;durP2;ratioP2;P2;SDS_P1;SDS_P2;PMS_P1;PMS_P2;Temp;Humidity;BMP_temperature;BMP_pressure;BME280_temperature;BME280_humidity;BME280_pressure;Samples;Min_cycle;Max_cycle;Signal;HPM_P1;HPM_P2
2022/09/15 00:01:10;;;;;;;2.38;1.30;;;;;;;17.39;95.85;97041.28;6155898;23;20032;-83
2022/09/15 00:03:37;;;;;;;1.17;1.08;;;;;;;17.41;95.38;97041.00;6156848;23;20346;-83
2022/09/15 00:06:05;;;;;;;1.85;1.67;;;;;;;17.29;95.44;97038.66;6156257;23;20017;-83
2022/09/15 00:08:32;;;;;;;1.20;1.10;;;;;;;17.35;94.45;97037.59;6156246;23;20052;-83
2022/09/15 00:11:19;;;;;;;1.50;1.40;;;;;;;17.38;95.40;97042.31;6183455;23;20071;-83
2022/09/15 00:13:46;;;;;;;1.75;1.13;;;;;;;17.43;96.10;97038.09;6183102;23;20067;-84
2022/09/15 00:16:15;;;;;;;2.08;1.30;;;;;;;17.39;95.98;97035.16;6157469;23;20017;-83
2022/09/15 00:18:43;;;;;;;1.40;0.90;;;;;;;17.49;97.21;97044.97;6158765;23;20043;-84
2022/09/15 00:21:19;;;;;;;0.93;0.90;;;;;;;17.38;96.43;97042.31;6185198;23;20052;-85
2022/09/15 00:23:48;;;;;;;2.00;1.13;;;;;;;17.42;95.99;97047.09;6183331;23;20009;-83
2022/09/15 00:26:20;;;;;;;1.73;1.00;;;;;;;17.43;96.59;97049.47;6181781;23;20055;-83
2022/09/15 00:28:47;;;;;;;1.00;1.00;;;;;;;17.39;95.35;97028.03;6184935;23;20012;-85
2022/09/15 00:31:18;;;;;;;1.45;1.20;;;;;;;17.34;94.04;97025.41;6158817;23;20021;-84
2022/09/15 00:33:48;;;;;;;1.40;1.10;;;;;;;17.36;93.67;97035.72;6158156;23;20021;-83
2022/09/15 00:36:20;;;;;;;2.50;1.40;;;;;;;17.45;93.47;97036.75;6159487;23;20032;-83
2022/09/15 00:38:50;;;;;;;;;;;;;;;17.51;95.05;97034.88;6184959;23;20055;-84
2022/09/15 00:41:20;;;;;;;1.00;0.90;;;;;;;17.45;95.10;97030.66;6159174;23;19922;-84
2022/09/15 00:44:00;;;;;;;0.88;0.88;;;;;;;17.48;95.29;97035.44;6184889;23;20009;-84
2022/09/15 00:46:36;;;;;;;1.23;1.03;;;;;;;17.50;95.44;97033.28;6186415;23;20340;-84
2022/09/15 00:49:10;;;;;;;1.35;1.20;;;;;;;17.40;95.17;97023.53;6186347;23;20021;-85
2022/09/15 00:52:02;;;;;;;1.63;1.40;;;;;;;17.46;95.19;97040.22;6159803;23;20021;-88
2022/09/15 00:54:44;;;;;;;1.45;1.10;;;;;;;17.42;95.07;97025.91;6158631;23;20048;-84
2022/09/15 00:57:21;;;;;;;1.75;1.30;;;;;;;17.37;95.20;97018.75;6185696;23;20028;-84
2022/09/15 00:59:50;;;;;;;3.40;1.48;;;;;;;17.33;94.74;97015.88;6159617;23;20847;-86
2022/09/15 01:02:28;;;;;;;1.30;1.20;;;;;;;17.41;94.97;97019.03;6160162;23;20013;-84
2022/09/15 01:04:57;;;;;;;1.40;1.30;;;;;;;17.36;94.38;97022.47;6185740;23;20044;-85
2022/09/15 01:07:53;;;;;;;1.35;1.08;;;;;;;17.44;94.40;97026.41;6134801;23;20032;-86
2022/09/15 01:10:39;;;;;;;1.15;1.05;;;;;;;17.38;95.15;97015.81;6160330;23;20025;-86
2022/09/15 01:13:12;;;;;;;1.83;1.33;;;;;;;17.42;95.11;97028.56;6186011;23;20093;-85
2022/09/15 01:16:00;;;;;;;2.05;1.10;;;;;;;17.38;94.50;97018.47;6185732;23;20051;-87
2022/09/15 01:19:04;;;;;;;1.40;1.30;;;;;;;17.35;95.16;97013.72;6185495;23;20028;-88
2022/09/15 01:21:58;;;;;;;1.40;1.30;;;;;;;17.41;95.26;97022.47;6186155;23;20067;-87
2022/09/15 01:25:13;;;;;;;2.63;1.63;;;;;;;17.35;94.92;97021.69;6158376;23;20013;-86
2022/09/15 01:28:17;;;;;;;1.60;1.50;;;;;;;17.39;95.51;97024.56;6148110;23;20021;-86
2022/09/15 01:31:04;;;;;;;2.72;1.58;;;;;;;17.22;95.12;97005.56;6112679;23;20017;-87
2022/09/15 01:33:45;;;;;;;1.80;1.70;;;;;;;17.34;94.59;97019.31;6158916;23;20020;-86
2022/09/15 01:36:33;;;;;;;1.42;1.27;;;;;;;17.37;95.12;97024.84;6185145;23;20048;-87
2022/09/15 01:39:20;;;;;;;1.25;1.15;;;;;;;17.42;95.32;97020.59;6184952;23;20017;-86
2022/09/15 01:42:08;;;;;;;2.97;1.85;;;;;;;17.29;94.58;97011.38;6136128;23;20017;-87
2022/09/15 01:44:49;;;;;;;1.50;1.40;;;;;;;17.40;95.16;97020.88;6186498;23;20390;-90
2022/09/15 01:47:21;;;;;;;1.60;1.50;;;;;;;17.41;95.65;97019.81;6159236;23;20029;-89
2022/09/15 01:50:05;;;;;;;1.27;1.17;;;;;;;17.42;95.58;97020.59;6186005;23;20265;-88
2022/09/15 01:52:33;;;;;;;1.42;1.30;;;;;;;17.36;95.17;97003.91;6158597;23;20013;-89
2022/09/15 01:55:13;;;;;;;1.35;1.25;;;;;;;17.42;94.98;97012.66;6184502;23;20071;-87
2022/09/15 01:57:39;;;;;;;1.92;1.33;;;;;;;17.35;95.25;97003.13;6157595;23;20095;-85
2022/09/15 02:00:07;;;;;;;1.52;1.42;;;;;;;17.31;95.65;96999.41;6184408;23;20737;-85
2022/09/15 02:02:47;;;;;;;1.80;1.38;;;;;;;17.35;95.73;96989.88;6183448;23;20017;-84
2022/09/15 02:05:28;;;;;;;2.50;1.40;;;;;;;17.37;95.48;97008.94;6157863;23;20017;-84
2022/09/15 02:08:04;;;;;;;1.30;1.20;;;;;;;17.33;95.64;96999.13;6158317;23;20028;-84
2022/09/15 02:11:08;;;;;;;1.35;1.10;;;;;;;17.29;95.86;96990.97;6183660;23;20021;-84
2022/09/15 02:13:55;;;;;;;1.83;1.10;;;;;;;17.38;96.22;96997.28;6150917;23;20420;-84
2022/09/15 02:16:28;;;;;;;1.60;1.10;;;;;;;17.41;96.21;96997.81;6132953;23;20025;-83
2022/09/15 02:19:10;;;;;;;1.27;1.17;;;;;;;17.41;95.92;96997.81;6157803;23;20020;-83
2022/09/15 02:21:42;;;;;;;1.40;1.25;;;;;;;17.37;95.50;96986.94;6183637;23;20072;-83
2022/09/15 02:24:20;;;;;;;1.80;1.45;;;;;;;17.34;95.55;96987.50;6178709;23;20020;-83
2022/09/15 02:26:53;;;;;;;1.58;1.48;;;;;;;17.34;95.70;96985.66;6184156;23;20017;-83
2022/09/15 02:29:25;;;;;;;1.20;1.10;;;;;;;17.33;96.87;96976.13;6184454;23;20319;-83
2022/09/15 02:31:58;;;;;;;1.55;1.45;;;;;;;17.35;95.62;96984.56;6157074;23;20339;-83
2022/09/15 02:34:40;;;;;;;1.50;1.40;;;;;;;17.39;96.48;96979.50;6183645;23;20395;-84
2022/09/15 02:37:09;;;;;;;1.70;1.38;;;;;;;17.41;95.69;96992.53;6157672;23;20103;-84
2022/09/15 02:39:44;;;;;;;1.20;1.10;;;;;;;17.45;96.61;96989.03;6158298;23;20330;-84
2022/09/15 02:42:11;;;;;;;1.10;1.00;;;;;;;17.41;96.20;96973.97;6157614;23;20016;-83
2022/09/15 02:44:39;;;;;;;0.90;0.90;;;;;;;17.41;96.57;96979.25;6182567;23;20021;-84
2022/09/15 02:47:05;;;;;;;1.38;1.27;;;;;;;17.43;96.51;96961.22;6184227;23;20393;-84
2022/09/15 02:49:32;;;;;;;0.80;0.80;;;;;;;17.48;96.70;96971.81;6156709;23;20021;-84
2022/09/15 02:51:59;;;;;;;1.30;1.20;;;;;;;17.41;95.79;96960.72;6158522;23;20021;-84
2022/09/15 02:54:26;;;;;;;1.17;1.08;;;;;;;17.49;96.35;96965.44;6183579;23;20021;-84
2022/09/15 02:56:53;;;;;;;0.82;0.80;;;;;;;17.51;96.27;96964.13;6157443;23;20019;-83
2022/09/15 02:59:19;;;;;;;1.15;1.05;;;;;;;17.48;96.10;96950.59;6183637;23;20104;-84
2022/09/15 03:01:47;;;;;;;1.30;1.20;;;;;;;17.46;95.95;96960.69;6183275;23;20024;-84
2022/09/15 03:04:14;;;;;;;1.35;1.25;;;;;;;17.49;95.93;96962.78;6183766;23;20021;-84
2022/09/15 03:06:40;;;;;;;2.45;1.35;;;;;;;17.50;95.68;96959.88;6156884;23;20095;-85
2022/09/15 03:09:07;;;;;;;1.50;1.40;;;;;;;17.47;95.61;96952.47;6132432;23;20021;-89
2022/09/15 03:11:35;;;;;;;1.50;1.20;;;;;;;17.53;96.36;96958.53;6156679;23;20132;-87
2022/09/15 03:14:05;;;;;;;1.13;1.02;;;;;;;17.54;96.34;96954.81;6132468;23;20017;-87
2022/09/15 03:16:34;;;;;;;1.20;1.10;;;;;;;17.51;95.47;96958.81;6183716;23;20507;-87
2022/09/15 03:19:01;;;;;;;1.30;1.00;;;;;;;17.50;95.77;96951.13;6156532;23;20031;-91
2022/09/15 03:21:29;;;;;;;1.02;1.00;;;;;;;17.55;96.29;96945.81;6181353;23;20035;-90
2022/09/15 03:23:57;;;;;;;1.45;1.00;;;;;;;17.55;95.99;96951.91;6133281;23;20017;-89
2022/09/15 03:26:24;;;;;;;1.00;1.00;;;;;;;17.53;95.86;96942.63;6152594;23;20052;-91
2022/09/15 03:28:52;;;;;;;1.30;1.10;;;;;;;17.54;96.15;96944.22;6137681;23;20021;-90
2022/09/15 03:31:20;;;;;;;0.70;0.70;;;;;;;17.50;95.99;96943.16;6157964;23;20348;-90
2022/09/15 03:33:48;;;;;;;1.55;1.00;;;;;;;17.55;96.07;96948.44;6183469;23;20478;-91
2022/09/15 03:36:15;;;;;;;2.00;1.40;;;;;;;17.45;96.17;96945.84;6134718;23;20072;-92
2022/09/15 03:38:42;;;;;;;1.00;1.00;;;;;;;17.44;96.41;96938.94;6159553;23;20108;-92
2022/09/15 03:41:12;;;;;;;2.17;1.30;;;;;;;17.49;96.22;96939.72;6183615;23;20362;-91
2022/09/15 03:43:40;;;;;;;1.70;1.60;;;;;;;17.48;96.62;96945.31;6182584;23;20009;-91
2022/09/15 03:46:10;;;;;;;1.17;1.08;;;;;;;17.51;97.18;96939.44;6157689;23;20021;-91
2022/09/15 03:48:40;;;;;;;2.20;1.20;;;;;;;17.49;96.97;96941.59;6158258;23;20394;-90
2022/09/15 03:51:11;;;;;;;2.40;2.20;;;;;;;17.43;96.60;96938.16;6157477;23;20049;-90
2022/09/15 03:53:40;;;;;;;2.05;1.85;;;;;;;17.44;96.81;96926.50;6159304;23;20032;-89
2022/09/15 03:56:30;;;;;;;1.90;1.70;;;;;;;17.46;97.35;96929.69;6185442;23;20017;-90
2022/09/15 03:59:02;;;;;;;2.42;1.60;;;;;;;17.48;97.31;96929.41;6160763;23;20036;-89
2022/09/15 04:01:29;;;;;;;2.05;1.92;;;;;;;17.43;97.58;96932.06;6186451;23;20091;-91
2022/09/15 04:03:57;;;;;;;3.72;2.58;;;;;;;17.36;97.16;96937.66;6135912;23;20384;-89
2022/09/15 04:06:26;;;;;;;3.33;2.85;;;;;;;17.16;98.42;96932.44;6185188;23;20017;-88
2022/09/15 04:08:53;;;;;;;3.42;2.70;;;;;;;17.16;99.61;96937.75;6185868;23;20016;-86
2022/09/15 04:11:21;;;;;;;3.13;2.40;;;;;;;17.11;100.00;96935.91;6184752;23;20028;-89
2022/09/15 04:13:48;;;;;;;2.92;2.72;;;;;;;17.10;100.00;96934.31;6183935;23;20055;-90
2022/09/15 04:16:18;;;;;;;3.58;3.05;;;;;;;17.07;100.00;96946.22;6159147;23;20347;-89
2022/09/15 04:18:46;;;;;;;4.40;2.97;;;;;;;17.03;100.00;96926.66;6183825;23;20043;-90
2022/09/15 04:21:19;;;;;;;2.40;2.10;;;;;;;17.07;100.00;96943.56;6159812;23;20095;-89
2022/09/15 04:23:47;;;;;;;4.82;2.70;;;;;;;17.03;100.00;96920.53;6185538;23;20036;-87
2022/09/15 04:26:23;;;;;;;3.88;2.70;;;;;;;17.09;100.00;96930.06;6150330;23;20024;-88
2022/09/15 04:28:49;;;;;;;2.60;2.40;;;;;;;17.03;100.00;96929.31;6154173;23;20037;-89
2022/09/15 04:31:17;;;;;;;3.45;3.15;;;;;;;17.09;100.00;96927.41;6152764;23;20021;-89
2022/09/15 04:33:45;;;;;;;4.85;2.60;;;;;;;17.04;100.00;96924.78;6154631;23;20018;-86
2022/09/15 04:36:17;;;;;;;3.65;2.45;;;;;;;17.04;100.00;96924.78;6156833;23;20739;-87
2022/09/15 04:38:45;;;;;;;2.53;2.33;;;;;;;17.04;100.00;96927.44;6130217;23;20112;-85
2022/09/15 04:41:14;;;;;;;3.10;2.80;;;;;;;16.95;100.00;96916.59;6153846;23;20132;-88
2022/09/15 04:43:42;;;;;;;4.45;2.97;;;;;;;17.00;100.00;96924.53;6153905;23;20345;-90
2022/09/15 04:46:10;;;;;;;3.03;2.83;;;;;;;16.89;100.00;96901.78;6154375;23;20040;-90
2022/09/15 04:48:37;;;;;;;3.15;2.40;;;;;;;16.98;100.00;96921.38;6155996;23;20051;-90
2022/09/15 04:51:09;;;;;;;3.35;2.70;;;;;;;16.98;100.00;96917.94;6154627;23;20022;-88
2022/09/15 04:53:36;;;;;;;2.95;2.42;;;;;;;16.97;100.00;96922.44;6154576;23;20033;-90
2022/09/15 04:56:17;;;;;;;2.92;2.53;;;;;;;16.91;100.00;96920.03;6155279;23;20025;-85
2022/09/15 04:58:49;;;;;;;2.70;2.50;;;;;;;16.90;100.00;96921.91;6155440;23;20519;-90
2022/09/15 05:01:20;;;;;;;2.97;2.60;;;;;;;16.79;100.00;96918.50;6157673;23;20024;-93
2022/09/15 05:03:48;;;;;;;3.85;3.17;;;;;;;16.77;100.00;96915.31;6155766;23;20040;-90
2022/09/15 05:06:20;;;;;;;3.33;2.50;;;;;;;16.81;100.00;96921.66;6157212;23;20048;-91
2022/09/15 05:08:53;;;;;;;2.72;2.30;;;;;;;16.78;100.00;96919.53;6155404;23;20045;-89
2022/09/15 05:11:22;;;;;;;3.47;2.50;;;;;;;16.82;100.00;96927.75;6180437;23;20364;-90
2022/09/15 05:13:50;;;;;;;3.10;2.40;;;;;;;16.82;100.00;96920.59;6156108;23;20460;-88
2022/09/15 05:16:24;;;;;;;2.35;2.25;;;;;;;16.88;100.00;96915.28;6156304;23;20021;-91
2022/09/15 05:18:54;;;;;;;3.65;2.70;;;;;;;16.84;100.00;96918.47;6179148;23;20035;-87
2022/09/15 05:21:22;;;;;;;2.50;2.30;;;;;;;16.89;100.00;96919.53;6129529;23;20018;-90
2022/09/15 05:23:50;;;;;;;3.10;2.50;;;;;;;16.86;100.00;96910.28;6154317;23;20013;-89
2022/09/15 05:26:22;;;;;;;3.20;3.00;;;;;;;16.87;100.00;96913.72;6141929;23;20021;-90
2022/09/15 05:28:50;;;;;;;3.05;2.75;;;;;;;16.83;100.00;96908.94;6129868;23;20112;-89
2022/09/15 05:31:24;;;;;;;2.42;2.22;;;;;;;16.93;100.00;96924.03;6156086;23;20022;-90
2022/09/15 05:33:53;;;;;;;2.60;2.40;;;;;;;16.89;100.00;96916.88;6153772;23;20023;-92
2022/09/15 05:36:23;;;;;;;2.78;2.58;;;;;;;16.97;100.00;96924.25;6155457;23;20344;-90
2022/09/15 05:38:55;;;;;;;3.17;2.97;;;;;;;16.97;100.00;96929.56;6153854;23;20100;-92
2022/09/15 05:41:24;;;;;;;3.40;3.10;;;;;;;17.01;100.00;96935.91;6155572;23;20021;-90
2022/09/15 05:43:55;;;;;;;4.50;3.30;;;;;;;16.92;100.00;96911.84;6154951;23;20021;-93
2022/09/15 05:46:26;;;;;;;4.32;3.17;;;;;;;16.97;100.00;96916.31;6150835;23;20048;-93
2022/09/15 05:48:57;;;;;;;3.00;2.80;;;;;;;17.04;99.91;96915.00;6128667;23;20017;-85
2022/09/15 05:51:25;;;;;;;2.95;2.70;;;;;;;17.02;100.00;96916.31;6152730;23;20463;-86
2022/09/15 05:53:52;;;;;;;3.35;3.05;;;;;;;17.02;100.00;96921.59;6153709;23;20018;-89
2022/09/15 05:56:19;;;;;;;2.97;2.72;;;;;;;17.00;99.75;96907.84;6154842;23;20024;-87
2022/09/15 05:58:48;;;;;;;4.07;3.50;;;;;;;16.99;99.70;96903.63;6153984;23;20025;-88
2022/09/15 06:01:20;;;;;;;3.30;2.85;;;;;;;17.09;98.79;96916.81;6153920;23;20455;-92
2022/09/15 06:03:48;;;;;;;3.22;3.03;;;;;;;17.04;100.00;96906.25;6153854;23;20409;-88
2022/09/15 06:06:15;;;;;;;3.30;3.10;;;;;;;17.08;100.00;96900.13;6154762;23;20443;-89
2022/09/15 06:08:47;;;;;;;4.13;3.60;;;;;;;17.12;100.00;96914.44;6153039;23;20104;-88
2022/09/15 06:11:21;;;;;;;4.07;3.78;;;;;;;17.02;100.00;96913.66;6157201;23;20056;-86
2022/09/15 06:13:48;;;;;;;4.20;3.80;;;;;;;16.96;100.00;96920.03;6154776;23;20104;-88
2022/09/15 06:16:21;;;;;;;3.67;3.08;;;;;;;16.81;100.00;96919.00;6129401;23;20045;-89
2022/09/15 06:18:51;;;;;;;3.22;2.92;;;;;;;16.76;100.00;96908.44;6155581;23;20411;-86
2022/09/15 06:21:26;;;;;;;3.22;2.92;;;;;;;16.75;100.00;96912.13;6152671;23;20021;-87
2022/09/15 06:24:02;;;;;;;3.80;3.50;;;;;;;16.71;100.00;96915.59;6152697;23;20072;-91
2022/09/15 06:26:29;;;;;;;3.20;3.00;;;;;;;16.76;100.00;96915.56;6178052;23;20033;-94
2022/09/15 06:29:03;;;;;;;4.25;3.70;;;;;;;16.70;100.00;96917.44;6153209;23;20356;-89
2022/09/15 06:31:32;;;;;;;4.57;3.50;;;;;;;16.76;100.00;96915.56;6152111;23;20018;-89
2022/09/15 06:34:00;;;;;;;4.47;4.07;;;;;;;16.74;100.00;96918.50;6153179;23;20021;-86
2022/09/15 06:36:30;;;;;;;4.78;3.50;;;;;;;16.74;100.00;96926.44;6149723;23;20033;-90
2022/09/15 06:38:58;;;;;;;2.75;2.55;;;;;;;16.72;100.00;96928.53;6127965;23;20096;-83
2022/09/15 06:41:27;;;;;;;2.60;2.40;;;;;;;16.76;100.00;96950.78;6154861;23;20017;-86
2022/09/15 06:44:12;;;;;;;3.13;2.55;;;;;;;16.71;100.00;96964.03;6133253;23;20434;-87
2022/09/15 06:46:39;;;;;;;2.42;1.73;;;;;;;16.67;100.00;96962.94;6177584;23;20443;-88
2022/09/15 06:49:06;;;;;;;1.30;1.20;;;;;;;16.66;100.00;96979.88;6152808;23;20451;-89
2022/09/15 06:51:35;;;;;;;0.80;0.80;;;;;;;16.61;100.00;96998.41;6153701;23;20021;-89
2022/09/15 06:54:03;;;;;;;0.55;0.55;;;;;;;16.56;100.00;97009.81;6152375;23;20020;-87
2022/09/15 06:56:31;;;;;;;0.70;0.70;;;;;;;16.49;100.00;97024.34;6151884;23;20021;-86
2022/09/15 06:59:15;;;;;;;0.93;0.50;;;;;;;16.48;100.00;97036.78;6146366;23;20049;-85
2022/09/15 07:01:54;;;;;;;0.40;0.40;;;;;;;16.45;100.00;97039.16;6149717;23;20021;-87
2022/09/15 07:04:21;;;;;;;0.38;0.38;;;;;;;16.39;100.00;97019.06;6135323;23;20422;-84
2022/09/15 07:06:49;;;;;;;0.40;0.40;;;;;;;16.41;100.00;96987.81;6149213;23;20073;-88
2022/09/15 07:09:16;;;;;;;2.03;0.52;;;;;;;16.22;100.00;96983.03;6149660;23;20021;-85
2022/09/15 07:11:42;;;;;;;0.57;0.50;;;;;;;16.20;100.00;96979.88;6123379;23;20018;-87
2022/09/15 07:14:11;;;;;;;0.50;0.50;;;;;;;16.17;100.00;97009.47;6149429;23;20013;-87
2022/09/15 07:16:38;;;;;;;0.40;0.40;;;;;;;16.22;100.00;97020.06;6148018;23;20048;-90
2022/09/15 07:19:05;;;;;;;0.55;0.32;;;;;;;16.22;100.00;97025.38;6148540;23;20021;-84
2022/09/15 07:21:32;;;;;;;0.47;0.40;;;;;;;16.26;100.00;97030.94;6149923;23;20025;-86
2022/09/15 07:23:59;;;;;;;0.50;0.50;;;;;;;16.32;100.00;97043.13;6148459;23;20021;-87
2022/09/15 07:26:32;;;;;;;0.30;0.30;;;;;;;16.39;100.00;97021.69;6169414;23;20368;-84
2022/09/15 07:29:04;;;;;;;0.50;0.35;;;;;;;16.47;100.00;97023.81;6148480;23;20071;-86
2022/09/15 07:31:34;;;;;;;0.85;0.73;;;;;;;16.51;100.00;97032.84;6146357;23;20108;-84
2022/09/15 07:34:01;;;;;;;;;;;;;;;16.58;100.00;97046.59;6143475;23;20073;-84
2022/09/15 07:36:29;;;;;;;1.92;0.90;;;;;;;16.58;100.00;97051.88;6169094;23;19917;-85
2022/09/15 07:38:56;;;;;;;1.10;0.60;;;;;;;16.50;100.00;97068.28;6147625;23;20021;-82
2022/09/15 07:41:29;;;;;;;0.50;0.50;;;;;;;16.47;100.00;97063.50;6148976;23;20719;-80
2022/09/15 07:43:59;;;;;;;0.50;0.50;;;;;;;16.53;100.00;97068.56;6149924;23;20069;-82
2022/09/15 07:46:30;;;;;;;0.50;0.50;;;;;;;16.57;100.00;97076.78;6123025;23;20068;-83
2022/09/15 07:48:57;;;;;;;0.95;0.70;;;;;;;16.60;100.00;97086.81;6148102;23;20100;-82
2022/09/15 07:51:25;;;;;;;0.50;0.50;;;;;;;16.63;99.99;97086.31;6149122;23;20100;-84
2022/09/15 07:53:53;;;;;;;0.60;0.60;;;;;;;16.79;99.66;97087.97;6149694;23;20041;-82
2022/09/15 07:56:22;;;;;;;0.25;0.25;;;;;;;17.07;100.00;97091.13;6148210;23;20440;-82
2022/09/15 07:58:49;;;;;;;0.52;0.45;;;;;;;17.26;100.00;97081.56;6145192;23;20093;-83
2022/09/15 08:01:18;;;;;;;0.52;0.50;;;;;;;17.44;98.62;97082.88;6150140;23;20636;-83
2022/09/15 08:03:48;;;;;;;0.60;0.60;;;;;;;17.43;95.56;97096.41;6149307;23;20047;-84
2022/09/15 08:06:24;;;;;;;1.30;0.50;;;;;;;17.42;94.87;97095.59;6150633;23;20032;-81
2022/09/15 08:08:50;;;;;;;0.73;0.60;;;;;;;17.60;95.98;97103.00;6151041;23;20028;-85
2022/09/15 08:11:25;;;;;;;0.40;0.40;;;;;;;17.64;93.08;97108.56;6148459;23;20013;-83
2022/09/15 08:13:54;;;;;;;1.48;0.70;;;;;;;17.68;93.35;97117.56;6149211;23;20110;-85
2022/09/15 08:16:23;;;;;;;2.10;0.60;;;;;;;17.66;94.44;97119.69;6152248;23;20073;-84
2022/09/15 08:18:54;;;;;;;2.05;0.80;;;;;;;17.65;93.62;97132.16;6153682;23;20014;-82
2022/09/15 08:21:21;;;;;;;0.55;0.55;;;;;;;17.54;93.25;97129.78;6150810;23;20017;-88
2022/09/15 08:23:54;;;;;;;0.50;0.50;;;;;;;17.65;94.28;97132.16;6152065;23;20017;-90
2022/09/15 08:26:23;;;;;;;0.50;0.50;;;;;;;17.61;92.42;97131.09;6148681;23;20084;-87
2022/09/15 08:28:50;;;;;;;0.80;0.73;;;;;;;17.62;93.14;97126.59;6127224;23;20386;-88
2022/09/15 08:31:17;;;;;;;0.52;0.52;;;;;;;17.66;93.48;97127.66;6176152;23;20025;-87
2022/09/15 08:33:50;;;;;;;1.00;0.80;;;;;;;17.62;92.36;97130.03;6174615;23;20022;-89
2022/09/15 08:36:17;;;;;;;0.50;0.50;;;;;;;17.62;92.90;97126.59;6153105;23;20517;-87
2022/09/15 08:38:45;;;;;;;0.50;0.50;;;;;;;17.81;93.26;97140.09;6153463;23;20215;-86
2022/09/15 08:41:28;;;;;;;0.65;0.60;;;;;;;17.82;93.48;97142.50;6178373;23;20064;-88
2022/09/15 08:44:25;;;;;;;0.50;0.50;;;;;;;17.97;92.42;97148.81;6152227;23;20045;-90
2022/09/15 08:47:01;;;;;;;1.35;0.73;;;;;;;17.79;92.32;97137.72;6155624;23;20021;-87
2022/09/15 08:49:31;;;;;;;0.88;0.70;;;;;;;17.86;90.49;97154.13;6154372;23;20570;-85
2022/09/15 08:52:38;;;;;;;0.60;0.60;;;;;;;17.76;90.17;97154.19;6155606;23;20045;-88
2022/09/15 08:55:27;;;;;;;0.60;0.60;;;;;;;17.74;90.77;97155.50;6154798;23;20022;-89
2022/09/15 08:57:54;;;;;;;0.40;0.40;;;;;;;17.81;92.67;97148.88;6154310;23;20021;-86
2022/09/15 09:00:23;;;;;;;0.63;0.40;;;;;;;17.89;90.00;97164.22;6150225;23;20052;-85
2022/09/15 09:03:37;;;;;;;0.35;0.35;;;;;;;17.84;88.45;97172.19;6158936;23;20320;-94
2022/09/15 09:06:38;;;;;;;0.57;0.57;;;;;;;17.66;88.82;97183.31;6157044;23;20013;-96
2022/09/15 09:09:39;;;;;;;0.40;0.40;;;;;;;17.55;91.47;97185.19;6118612;23;20025;-86
2022/09/15 09:12:54;;;;;;;0.35;0.35;;;;;;;17.48;91.40;97184.66;6153270;23;20043;-93
2022/09/15 09:15:52;;;;;;;0.50;0.50;;;;;;;17.47;91.45;97176.97;6134646;23;20056;-95
2022/09/15 09:18:45;;;;;;;0.40;0.40;;;;;;;17.58;92.59;97178.56;6126816;23;20017;-88
2022/09/15 09:21:12;;;;;;;0.35;0.35;;;;;;;17.73;90.70;97178.56;6153902;23;20034;-93
2022/09/15 09:23:53;;;;;;;0.43;0.43;;;;;;;17.53;89.21;97189.19;6154928;23;20029;-89
2022/09/15 09:26:34;;;;;;;0.50;0.50;;;;;;;17.51;90.48;97186.81;6178821;23;20022;-95
2022/09/15 09:29:17;;;;;;;0.35;0.35;;;;;;;17.50;90.47;97181.75;6185100;23;20413;-93
2022/09/15 09:31:51;;;;;;;0.30;0.30;;;;;;;17.50;91.07;97182.53;6161343;23;20021;-90
2022/09/15 09:34:37;;;;;;;0.40;0.40;;;;;;;17.60;91.83;97177.22;6181521;23;20036;-86
2022/09/15 09:37:14;;;;;;;0.50;0.50;;;;;;;17.56;90.01;97175.38;6181225;23;20025;-92
2022/09/15 09:39:41;;;;;;;1.17;0.60;;;;;;;17.47;88.66;97184.94;6132714;23;20024;-92
2022/09/15 09:42:17;;;;;;;1.00;0.73;;;;;;;17.30;88.24;97191.28;6158888;23;20028;-91
2022/09/15 09:44:46;;;;;;;0.70;0.70;;;;;;;17.33;88.35;97206.69;6157431;23;20013;-93
2022/09/15 09:47:15;;;;;;;0.60;0.55;;;;;;;17.51;90.51;97191.28;6157915;23;20048;-88
2022/09/15 09:49:47;;;;;;;0.60;0.60;;;;;;;17.72;87.70;97189.47;6156346;23;20386;-90
2022/09/15 09:52:37;;;;;;;0.68;0.68;;;;;;;17.96;86.61;97192.34;6157098;23;20075;-88
2022/09/15 09:55:29;;;;;;;1.88;0.75;;;;;;;17.93;84.98;97180.38;6156345;23;20351;-89
2022/09/15 09:58:17;;;;;;;1.50;0.70;;;;;;;18.01;86.55;97197.63;6156382;23;20028;-89
2022/09/15 10:00:46;;;;;;;0.95;0.90;;;;;;;17.77;83.40;97181.50;6152733;23;20332;-89
2022/09/15 10:03:23;;;;;;;1.30;0.90;;;;;;;17.86;86.67;97201.88;6183493;23;20029;-92
2022/09/15 10:06:21;;;;;;;1.38;1.00;;;;;;;17.59;84.34;97196.84;6134484;23;20116;-90
2022/09/15 10:08:58;;;;;;;1.25;1.10;;;;;;;17.52;86.77;97200.84;6158408;23;20447;-91
2022/09/15 10:11:50;;;;;;;1.40;1.30;;;;;;;17.45;87.94;97193.13;6134275;23;20025;-89
2022/09/15 10:14:30;;;;;;;1.20;1.10;;;;;;;17.55;88.11;97184.41;6131399;23;20025;-91
2022/09/15 10:17:13;;;;;;;2.13;1.30;;;;;;;17.71;87.80;97193.16;6157554;23;20016;-90
2022/09/15 10:19:55;;;;;;;1.63;1.50;;;;;;;17.77;86.42;97192.91;6182388;23;20028;-92
2022/09/15 10:22:54;;;;;;;1.65;1.38;;;;;;;17.73;86.14;97205.09;6158808;23;20053;-91
2022/09/15 10:25:21;;;;;;;1.30;1.20;;;;;;;17.87;88.13;97203.50;6154142;23;20032;-90
2022/09/15 10:28:23;;;;;;;1.58;1.48;;;;;;;17.86;86.73;97188.63;6158984;23;20021;-93
2022/09/15 10:31:10;;;;;;;1.60;1.50;;;;;;;17.97;85.60;97194.72;6132185;23;20044;-90
2022/09/15 10:33:47;;;;;;;1.40;1.30;;;;;;;18.08;86.27;97193.63;6182645;23;20021;-91
2022/09/15 10:36:21;;;;;;;1.40;1.30;;;;;;;18.08;84.68;97204.25;6182782;23;20035;-90
2022/09/15 10:39:20;;;;;;;1.42;1.33;;;;;;;18.01;85.30;97202.94;6154806;23;20056;-90
2022/09/15 10:42:17;;;;;;;2.50;2.03;;;;;;;17.81;86.00;97204.56;6151092;23;20107;-85
2022/09/15 10:45:14;;;;;;;2.20;1.63;;;;;;;17.62;83.27;97208.78;6174688;23;20443;-88
2022/09/15 10:48:01;;;;;;;2.00;1.90;;;;;;;17.54;84.49;97206.66;6150823;23;20327;-90
2022/09/15 10:50:35;;;;;;;1.73;1.50;;;;;;;17.69;86.80;97216.47;6177548;23;20112;-88
2022/09/15 10:53:23;;;;;;;1.90;1.80;;;;;;;17.70;86.26;97213.56;6150087;23;20013;-88
2022/09/15 10:56:25;;;;;;;1.40;1.30;;;;;;;17.91;89.00;97207.19;6154300;23;20092;-89
2022/09/15 10:59:03;;;;;;;1.83;1.73;;;;;;;17.93;83.30;97201.59;6175707;23;20025;-88
2022/09/15 11:01:58;;;;;;;1.40;1.30;;;;;;;18.09;83.40;97192.56;6179999;23;20048;-89
2022/09/15 11:04:56;;;;;;;1.65;1.55;;;;;;;18.11;81.76;97202.91;6154842;23;20021;-86
2022/09/15 11:07:31;;;;;;;1.90;1.50;;;;;;;18.30;84.90;97206.56;6181781;23;20021;-87
2022/09/15 11:10:20;;;;;;;1.70;1.60;;;;;;;18.23;81.27;97200.72;6180965;23;20021;-87
2022/09/15 11:12:56;;;;;;;1.48;1.38;;;;;;;18.46;83.07;97210.75;6181707;23;20811;-88
2022/09/15 11:15:49;;;;;;;1.55;1.45;;;;;;;18.48;81.52;97204.41;6181834;23;20443;-87
2022/09/15 11:18:35;;;;;;;1.65;1.55;;;;;;;18.43;79.64;97203.34;6180959;23;20025;-89
2022/09/15 11:21:13;;;;;;;2.00;1.80;;;;;;;18.30;82.15;97195.97;6154803;23;20091;-86
2022/09/15 11:24:26;;;;;;;2.10;2.00;;;;;;;18.11;76.80;97208.19;6155160;23;20017;-87
2022/09/15 11:27:27;;;;;;;1.92;1.60;;;;;;;18.06;79.24;97213.53;6178678;23;20041;-89
2022/09/15 11:30:13;;;;;;;1.92;1.65;;;;;;;18.17;79.86;97217.75;6176620;23;20029;-87
2022/09/15 11:32:47;;;;;;;2.00;1.80;;;;;;;18.09;77.27;97205.81;6179526;23;20029;-86
2022/09/15 11:35:43;;;;;;;2.35;1.83;;;;;;;18.17;80.15;97210.59;6157593;23;20021;-87
2022/09/15 11:38:47;;;;;;;1.70;1.42;;;;;;;18.51;82.06;97222.41;6131621;23;20024;-89
2022/09/15 11:41:35;;;;;;;1.60;1.50;;;;;;;18.61;79.97;97207.25;6184564;23;20509;-88
2022/09/15 11:44:26;;;;;;;1.80;1.50;;;;;;;18.79;78.48;97216.50;6182047;23;20076;-88
2022/09/15 11:47:23;;;;;;;2.10;1.52;;;;;;;18.65;75.47;97228.72;6156531;23;20466;-89
2022/09/15 11:50:20;;;;;;;1.85;1.70;;;;;;;18.55;74.43;97220.81;6156416;23;20075;-88
2022/09/15 11:53:15;;;;;;;1.50;1.40;;;;;;;18.54;79.49;97208.63;6156533;23;20017;-89
2022/09/15 11:56:04;;;;;;;2.03;1.83;;;;;;;18.45;77.59;97213.69;6155573;23;20013;-88
2022/09/15 11:59:18;;;;;;;2.05;1.85;;;;;;;18.20;74.70;97217.22;6182265;23;20021;-88
2022/09/15 12:02:21;;;;;;;1.90;1.70;;;;;;;18.15;77.66;97203.94;6159059;23;20022;-90
2022/09/15 12:05:14;;;;;;;1.85;1.75;;;;;;;18.20;78.91;97225.19;6182601;23;20025;-88
2022/09/15 12:07:53;;;;;;;3.85;2.28;;;;;;;17.95;78.40;97211.97;6182554;23;20021;-90
2022/09/15 12:10:29;;;;;;;3.05;2.10;;;;;;;17.86;77.01;97212.50;6183101;23;20095;-89
2022/09/15 12:13:00;;;;;;;2.33;1.88;;;;;;;17.82;77.25;97221.28;6157445;23;20071;-86